createdAt,value
2023-03-24T00:00:38.371Z,14.40
2023-03-24T00:03:05.264Z,14.40
2023-03-24T00:05:32.150Z,14.40
2023-03-24T00:08:02.972Z,14.40
2023-03-24T00:10:30.585Z,14.40
2023-03-24T00:12:58.470Z,14.50
2023-03-24T00:15:28.093Z,14.50
2023-03-24T00:17:58.029Z,14.40
2023-03-24T00:20:26.304Z,14.50
2023-03-24T00:22:58.553Z,14.50
2023-03-24T00:25:36.168Z,14.50
2023-03-24T00:28:05.907Z,14.60
2023-03-24T00:30:37.582Z,14.50
2023-03-24T00:33:04.474Z,14.60
2023-03-24T00:35:31.318Z,14.50
2023-03-24T00:38:00.566Z,14.60
2023-03-24T00:40:27.849Z,14.50
2023-03-24T00:42:54.576Z,14.40
2023-03-24T00:45:25.480Z,14.40
2023-03-24T00:47:57.954Z,14.30
2023-03-24T00:50:28.254Z,14.30
2023-03-24T00:52:58.182Z,14.20
2023-03-24T00:55:28.434Z,14.20
2023-03-24T00:57:57.706Z,14.20
2023-03-24T01:00:26.818Z,14.20
2023-03-24T01:02:56.696Z,14.10
2023-03-24T01:05:29.071Z,14.10
2023-03-24T01:08:03.093Z,14.10
2023-03-24T01:10:35.039Z,14.10
2023-03-24T01:13:02.511Z,14.10
2023-03-24T01:15:33.350Z,14.10
2023-03-24T01:18:03.607Z,14.10
2023-03-24T01:20:34.226Z,14.10
2023-03-24T01:23:05.796Z,14.10
2023-03-24T01:25:33.451Z,14.10
2023-03-24T01:28:02.552Z,14.00
2023-03-24T01:30:30.108Z,14.00
2023-03-24T01:32:57.793Z,14.00
2023-03-24T01:35:29.748Z,13.90
2023-03-24T01:37:57.581Z,13.90
2023-03-24T01:40:30.342Z,13.90
2023-03-24T01:43:00.229Z,13.90
2023-03-24T01:45:35.981Z,13.80
2023-03-24T01:48:06.895Z,13.80
2023-03-24T01:50:33.801Z,13.80
2023-03-24T01:53:01.339Z,13.80
2023-03-24T01:55:29.859Z,13.80
2023-03-24T01:58:00.358Z,13.80
2023-03-24T02:00:27.241Z,13.80
2023-03-24T02:03:09.531Z,13.70
2023-03-24T02:05:39.525Z,13.80
2023-03-24T02:08:33.610Z,13.80
2023-03-24T02:11:06.573Z,13.80
2023-03-24T02:13:33.314Z,13.80
2023-03-24T02:16:46.816Z,13.70
2023-03-24T02:19:50.051Z,13.70
2023-03-24T02:22:43.968Z,13.80
2023-03-24T02:25:48.244Z,13.70
2023-03-24T02:28:26.359Z,13.70
2023-03-24T02:31:06.437Z,13.70
2023-03-24T02:34:04.584Z,13.80
2023-03-24T02:37:02.447Z,13.80
2023-03-24T02:39:59.689Z,13.70
2023-03-24T02:42:44.550Z,13.80
2023-03-24T02:45:59.547Z,13.70
2023-03-24T02:48:52.267Z,13.80
2023-03-24T02:51:34.647Z,13.80
2023-03-24T02:54:17.221Z,13.80
2023-03-24T02:57:05.521Z,13.90
2023-03-24T02:59:44.451Z,13.90
2023-03-24T03:02:23.059Z,13.90
2023-03-24T03:05:19.913Z,13.80
2023-03-24T03:07:49.110Z,13.80
2023-03-24T03:10:25.524Z,13.90
2023-03-24T03:12:56.217Z,13.90
2023-03-24T03:15:27.552Z,13.80
2023-03-24T03:18:22.928Z,13.80
2023-03-24T03:20:54.688Z,13.80
2023-03-24T03:23:29.234Z,13.80
2023-03-24T03:26:05.973Z,13.80
2023-03-24T03:28:36.814Z,13.80
2023-03-24T03:31:08.069Z,13.90
2023-03-24T03:33:44.216Z,13.80
2023-03-24T03:36:22.804Z,13.90
2023-03-24T03:39:15.930Z,13.90
2023-03-24T03:41:43.423Z,13.90
2023-03-24T03:44:10.686Z,13.90
2023-03-24T03:46:37.859Z,13.90
2023-03-24T03:49:07.039Z,14.00
2023-03-24T03:51:36.772Z,13.90
2023-03-24T03:54:07.318Z,13.90
2023-03-24T03:56:39.001Z,14.00
2023-03-24T03:59:07.012Z,14.00
2023-03-24T04:01:37.387Z,14.10
2023-03-24T04:04:53.191Z,14.10
2023-03-24T04:07:24.799Z,14.20
2023-03-24T04:10:08.963Z,14.20
2023-03-24T04:12:46.892Z,14.20
2023-03-24T04:15:48.544Z,14.40
2023-03-24T04:18:32.139Z,14.40
2023-03-24T04:21:28.640Z,14.40
2023-03-24T04:24:05.190Z,14.30
2023-03-24T04:26:42.269Z,14.40
2023-03-24T04:29:17.825Z,14.40
2023-03-24T04:31:56.159Z,14.50
2023-03-24T04:34:28.870Z,14.40
2023-03-24T04:37:08.247Z,14.40
2023-03-24T04:39:39.097Z,14.50
2023-03-24T04:42:11.712Z,14.40
2023-03-24T04:44:41.596Z,14.40
2023-03-24T04:47:10.052Z,14.50
2023-03-24T04:49:42.719Z,14.50
2023-03-24T04:52:11.538Z,14.50
2023-03-24T04:54:38.889Z,14.50
2023-03-24T04:57:06.071Z,14.50
2023-03-24T04:59:34.360Z,14.50
2023-03-24T05:02:02.102Z,14.60
2023-03-24T05:04:31.606Z,14.50
2023-03-24T05:06:58.347Z,14.50
2023-03-24T05:09:25.989Z,14.60
2023-03-24T05:11:52.855Z,14.60
2023-03-24T05:14:19.596Z,14.50
2023-03-24T05:16:46.318Z,14.50
2023-03-24T05:19:13.193Z,14.50
2023-03-24T05:21:40.162Z,14.50
2023-03-24T05:24:07.406Z,14.50
2023-03-24T05:26:34.467Z,14.50
2023-03-24T05:29:01.410Z,14.50
2023-03-24T05:31:28.145Z,14.50
2023-03-24T05:33:56.588Z,14.50
2023-03-24T05:36:23.417Z,14.50
2023-03-24T05:38:52.520Z,14.50
2023-03-24T05:41:21.354Z,14.60
2023-03-24T05:43:47.992Z,14.30
2023-03-24T05:46:14.718Z,14.00
2023-03-24T05:48:43.982Z,13.50
2023-03-24T05:51:12.923Z,13.10
2023-03-24T05:53:42.115Z,13.00
2023-03-24T05:56:11.940Z,12.90
2023-03-24T05:58:39.342Z,12.80
2023-03-24T06:01:18.322Z,12.80
2023-03-24T06:06:16.743Z,12.60
2023-03-24T06:08:45.097Z,12.50
2023-03-24T06:11:17.014Z,12.50
2023-03-24T06:13:43.691Z,12.50
2023-03-24T06:16:13.141Z,12.50
2023-03-24T06:18:52.368Z,12.40
2023-03-24T06:21:19.700Z,12.40
2023-03-24T06:23:46.452Z,12.40
2023-03-24T06:26:14.949Z,12.40
2023-03-24T06:28:44.092Z,12.30
2023-03-24T06:31:21.306Z,12.30
2023-03-24T06:33:48.716Z,12.30
2023-03-24T06:36:15.939Z,12.30
2023-03-24T06:38:45.443Z,12.30
2023-03-24T06:41:12.210Z,12.30
2023-03-24T06:43:41.259Z,12.40
2023-03-24T06:46:08.128Z,12.40
2023-03-24T06:48:34.930Z,12.40
2023-03-24T06:51:01.678Z,12.50
2023-03-24T06:53:28.524Z,12.50
2023-03-24T06:55:59.576Z,12.50
2023-03-24T06:58:28.998Z,12.50
2023-03-24T07:00:55.919Z,12.50
2023-03-24T07:03:23.480Z,12.60
2023-03-24T07:05:50.287Z,12.60
2023-03-24T07:08:36.284Z,12.60
2023-03-24T07:11:04.699Z,12.60
2023-03-24T07:13:31.513Z,12.70
2023-03-24T07:15:58.203Z,12.70
2023-03-24T07:18:27.507Z,12.60
2023-03-24T07:20:56.690Z,12.60
2023-03-24T07:23:25.081Z,12.50
2023-03-24T07:25:51.990Z,12.50
2023-03-24T07:28:21.146Z,12.40
2023-03-24T07:30:47.918Z,12.50
2023-03-24T07:33:14.680Z,12.50
2023-03-24T07:35:42.654Z,12.60
2023-03-24T07:38:10.562Z,12.60
2023-03-24T07:40:37.424Z,12.60
2023-03-24T07:43:07.624Z,12.60
2023-03-24T07:45:36.986Z,12.60
2023-03-24T07:48:03.892Z,12.60
2023-03-24T07:50:31.819Z,12.60
2023-03-24T07:53:00.153Z,12.60
2023-03-24T07:55:29.579Z,12.70
2023-03-24T07:57:56.737Z,12.70
2023-03-24T08:00:24.998Z,12.80
2023-03-24T08:02:53.478Z,12.70
2023-03-24T08:05:24.785Z,12.80
2023-03-24T08:07:55.782Z,12.80
2023-03-24T08:10:25.846Z,12.70
2023-03-24T08:12:52.548Z,12.80
2023-03-24T08:15:19.424Z,12.80
2023-03-24T08:17:50.522Z,12.80
2023-03-24T08:20:21.307Z,12.80
2023-03-24T08:22:54.325Z,12.70
2023-03-24T08:25:24.514Z,12.70
2023-03-24T08:27:52.350Z,12.70
2023-03-24T08:30:22.002Z,12.80
2023-03-24T08:33:00.384Z,13.00
2023-03-24T08:35:31.455Z,13.10
2023-03-24T08:38:06.165Z,13.40
2023-03-24T08:40:34.704Z,13.40
2023-03-24T08:43:08.562Z,13.50
2023-03-24T08:45:36.390Z,13.70
2023-03-24T08:48:05.673Z,13.80
2023-03-24T08:50:38.903Z,13.70
2023-03-24T08:53:05.742Z,13.70
2023-03-24T08:55:35.215Z,13.60
2023-03-24T08:58:01.961Z,13.70
2023-03-24T09:00:29.120Z,13.60
2023-03-24T09:02:56.917Z,13.50
2023-03-24T09:05:37.174Z,13.50
2023-03-24T09:08:12.355Z,13.60
2023-03-24T09:10:40.333Z,13.80
2023-03-24T09:13:09.723Z,13.90
2023-03-24T09:15:36.693Z,14.10
2023-03-24T09:18:06.405Z,14.10
2023-03-24T09:20:33.067Z,14.20
2023-03-24T09:22:59.830Z,14.20
2023-03-24T09:25:26.967Z,14.20
2023-03-24T09:27:56.950Z,14.20
2023-03-24T09:30:23.785Z,14.20
2023-03-24T09:32:50.604Z,14.20
2023-03-24T09:35:17.510Z,14.30
2023-03-24T09:37:44.833Z,14.50
2023-03-24T09:40:31.086Z,14.60
2023-03-24T09:43:05.515Z,14.90
2023-03-24T09:45:37.149Z,15.00
2023-03-24T09:48:14.724Z,15.10
2023-03-24T09:50:59.023Z,15.20
2023-03-24T09:54:04.293Z,15.30
2023-03-24T09:56:36.456Z,15.50
2023-03-24T09:59:18.345Z,15.60
2023-03-24T10:01:45.510Z,15.90
2023-03-24T10:04:18.504Z,16.20
2023-03-24T10:06:48.415Z,16.40
2023-03-24T10:09:30.961Z,16.50
2023-03-24T10:12:21.054Z,16.50
2023-03-24T10:15:08.135Z,16.40
2023-03-24T10:18:11.870Z,16.30
2023-03-24T10:20:51.370Z,16.20
2023-03-24T10:23:40.869Z,16.10
2023-03-24T10:26:10.891Z,16.30
2023-03-24T10:29:04.661Z,16.40
2023-03-24T10:31:34.703Z,16.20
2023-03-24T10:34:01.470Z,16.00
2023-03-24T10:36:29.102Z,15.80
2023-03-24T10:38:56.672Z,15.80
2023-03-24T10:41:31.474Z,16.00
2023-03-24T10:44:00.675Z,15.90
2023-03-24T10:46:32.793Z,16.00
2023-03-24T10:49:19.857Z,15.90
2023-03-24T10:51:52.248Z,15.70
2023-03-24T10:54:23.180Z,15.50
2023-03-24T10:56:52.534Z,15.50
2023-03-24T10:59:22.743Z,15.30
2023-03-24T11:01:52.410Z,15.20
2023-03-24T11:04:20.800Z,15.10
2023-03-24T11:07:13.964Z,15.10
2023-03-24T11:09:43.269Z,15.30
2023-03-24T11:12:26.031Z,15.40
2023-03-24T11:15:10.322Z,15.60
2023-03-24T11:17:45.637Z,15.60
2023-03-24T11:20:35.018Z,15.70
2023-03-24T11:23:18.502Z,15.80
2023-03-24T11:26:02.871Z,15.80
2023-03-24T11:28:37.896Z,15.80
2023-03-24T11:31:10.829Z,16.00
2023-03-24T11:33:50.632Z,16.10
2023-03-24T11:36:35.897Z,16.00
2023-03-24T11:39:11.585Z,15.90
2023-03-24T11:41:41.696Z,15.90
2023-03-24T11:44:47.060Z,16.00
2023-03-24T11:47:22.463Z,16.30
2023-03-24T11:50:13.466Z,16.70
2023-03-24T11:52:50.521Z,16.70
2023-03-24T11:55:23.295Z,16.50
2023-03-24T11:58:02.497Z,16.50
2023-03-24T12:00:48.283Z,16.50
2023-03-24T12:03:45.302Z,16.60
2023-03-24T12:06:36.015Z,16.50
2023-03-24T12:09:20.086Z,16.50
2023-03-24T12:12:17.072Z,16.50
2023-03-24T12:15:26.734Z,16.60
2023-03-24T12:18:13.940Z,16.80
2023-03-24T12:20:43.398Z,16.70
2023-03-24T12:23:23.588Z,16.50
2023-03-24T12:25:59.138Z,16.50
2023-03-24T12:28:53.166Z,16.50
2023-03-24T12:31:31.972Z,16.60
2023-03-24T12:34:27.924Z,16.60
2023-03-24T12:37:10.067Z,16.90
2023-03-24T12:39:47.967Z,17.00
2023-03-24T12:42:17.049Z,17.10
2023-03-24T12:45:02.478Z,17.10
2023-03-24T12:47:44.319Z,17.00
2023-03-24T12:50:42.724Z,16.70
2023-03-24T12:53:14.326Z,16.90
2023-03-24T12:56:09.475Z,17.10
2023-03-24T12:58:46.981Z,17.10
2023-03-24T13:01:23.773Z,17.10
2023-03-24T13:04:08.450Z,17.10
2023-03-24T13:06:45.887Z,17.30
2023-03-24T13:09:25.670Z,17.50
2023-03-24T13:12:08.204Z,17.60
2023-03-24T13:15:04.860Z,17.60
2023-03-24T13:17:38.153Z,17.80
2023-03-24T13:20:08.430Z,17.90
2023-03-24T13:22:37.609Z,18.00
2023-03-24T13:25:16.845Z,17.90
2023-03-24T13:27:47.704Z,17.70
2023-03-24T13:30:26.720Z,17.60
2023-03-24T13:32:59.685Z,17.50
2023-03-24T13:35:47.904Z,17.30
2023-03-24T13:38:37.362Z,17.30
2023-03-24T13:41:11.268Z,17.50
2023-03-24T13:43:47.665Z,17.70
2023-03-24T13:46:14.946Z,17.60
2023-03-24T13:48:44.140Z,17.60
2023-03-24T13:51:34.854Z,17.80
2023-03-24T13:54:19.129Z,17.90
2023-03-24T13:57:16.458Z,17.60
2023-03-24T14:00:11.770Z,17.30
2023-03-24T14:02:51.221Z,17.20
2023-03-24T14:05:40.395Z,17.10
2023-03-24T14:08:07.161Z,17.00
2023-03-24T14:10:43.516Z,17.20
2023-03-24T14:13:13.275Z,17.40
2023-03-24T14:15:53.115Z,17.60
2023-03-24T14:18:23.009Z,17.60
2023-03-24T14:20:56.385Z,17.60
2023-03-24T14:23:47.057Z,17.30
2023-03-24T14:26:34.480Z,17.10
2023-03-24T14:29:01.616Z,17.00
2023-03-24T14:31:34.630Z,17.10
2023-03-24T14:34:07.224Z,17.00
2023-03-24T14:36:40.206Z,17.00
2023-03-24T14:39:27.171Z,16.80
2023-03-24T14:41:56.318Z,16.60
2023-03-24T14:44:51.314Z,16.50
2023-03-24T14:47:32.915Z,16.50
2023-03-24T14:50:10.998Z,16.90
2023-03-24T14:52:44.664Z,17.10
2023-03-24T14:55:19.685Z,17.20
2023-03-24T14:57:56.432Z,17.50
2023-03-24T15:00:58.000Z,17.50
2023-03-24T15:04:09.230Z,17.10
2023-03-24T15:06:48.588Z,16.80
2023-03-24T15:09:19.633Z,16.70
2023-03-24T15:11:48.497Z,16.60
2023-03-24T15:14:15.812Z,16.60
2023-03-24T15:16:51.132Z,16.50
2023-03-24T15:19:24.415Z,16.40
2023-03-24T15:22:11.956Z,16.30
2023-03-24T15:24:41.948Z,16.20
2023-03-24T15:27:18.231Z,16.10
2023-03-24T15:29:46.229Z,16.00
2023-03-24T15:32:20.009Z,15.80
2023-03-24T15:34:49.140Z,15.70
2023-03-24T15:37:31.161Z,15.70
2023-03-24T15:40:12.532Z,15.70
2023-03-24T15:42:44.712Z,15.80
2023-03-24T15:45:35.722Z,15.80
2023-03-24T15:48:21.843Z,15.70
2023-03-24T15:51:18.928Z,15.70
2023-03-24T15:53:58.140Z,15.70
2023-03-24T15:56:26.496Z,15.70
2023-03-24T15:59:11.838Z,15.60
2023-03-24T16:01:45.105Z,15.60
2023-03-24T16:04:20.427Z,15.60
2023-03-24T16:06:54.166Z,15.80
2023-03-24T16:09:28.299Z,15.90
2023-03-24T16:11:56.894Z,16.20
2023-03-24T16:14:29.023Z,16.20
2023-03-24T16:16:58.535Z,16.20
2023-03-24T16:19:28.666Z,16.10
2023-03-24T16:21:56.439Z,16.10
2023-03-24T16:24:24.461Z,16.00
2023-03-24T16:26:51.801Z,16.10
2023-03-24T16:29:23.113Z,16.20
2023-03-24T16:31:52.510Z,16.10
2023-03-24T16:34:23.693Z,15.90
2023-03-24T16:36:52.988Z,15.80
2023-03-24T16:39:24.486Z,15.70
2023-03-24T16:41:53.714Z,15.60
2023-03-24T16:44:23.865Z,15.60
2023-03-24T16:46:53.793Z,15.50
2023-03-24T16:49:22.045Z,15.50
2023-03-24T16:51:49.158Z,15.40
2023-03-24T16:54:16.411Z,15.30
2023-03-24T16:56:43.312Z,15.30
2023-03-24T16:59:12.683Z,15.30
2023-03-24T17:01:43.157Z,15.30
2023-03-24T17:04:19.321Z,15.20
2023-03-24T17:06:55.417Z,15.20
2023-03-24T17:09:23.062Z,15.20
2023-03-24T17:11:56.297Z,14.80
2023-03-24T17:14:26.604Z,14.30
2023-03-24T17:16:53.950Z,13.50
2023-03-24T17:19:23.038Z,13.00
2023-03-24T17:21:57.970Z,12.60
2023-03-24T17:24:25.532Z,12.30
2023-03-24T17:26:55.517Z,12.10
2023-03-24T17:29:23.949Z,12.10
2023-03-24T17:31:50.904Z,12.00
2023-03-24T17:34:21.697Z,12.10
2023-03-24T17:36:52.159Z,12.00
2023-03-24T17:39:20.710Z,11.90
2023-03-24T17:41:47.911Z,11.90
2023-03-24T17:44:18.471Z,11.80
2023-03-24T17:46:46.065Z,11.70
2023-03-24T17:49:13.096Z,11.60
2023-03-24T17:51:40.774Z,11.50
2023-03-24T17:54:07.789Z,11.40
2023-03-24T17:56:35.862Z,11.30
2023-03-24T17:59:03.760Z,11.20
2023-03-24T18:01:35.142Z,11.20
2023-03-24T18:04:02.375Z,11.20
2023-03-24T18:06:31.073Z,11.30
2023-03-24T18:08:58.468Z,11.40
2023-03-24T18:11:25.866Z,11.30
2023-03-24T18:13:52.803Z,11.30
2023-03-24T18:16:21.899Z,11.30
2023-03-24T18:18:52.322Z,11.40
2023-03-24T18:21:19.652Z,11.40
2023-03-24T18:23:49.755Z,11.40
2023-03-24T18:26:18.491Z,11.30
2023-03-24T18:28:47.767Z,11.20
2023-03-24T18:31:26.235Z,11.20
2023-03-24T18:33:55.026Z,11.20
2023-03-24T18:36:27.056Z,11.30
2023-03-24T18:39:01.350Z,11.20
2023-03-24T18:41:32.220Z,11.20
2023-03-24T18:43:59.737Z,11.20
2023-03-24T18:46:27.939Z,11.20
2023-03-24T18:48:56.093Z,11.30
2023-03-24T18:51:25.647Z,11.30
2023-03-24T18:53:57.986Z,11.40
2023-03-24T18:56:25.762Z,11.40
2023-03-24T18:58:52.858Z,11.40
2023-03-24T19:01:25.594Z,11.50
2023-03-24T19:03:54.131Z,11.50
2023-03-24T19:06:22.078Z,11.50
2023-03-24T19:08:53.275Z,11.40
2023-03-24T19:11:21.089Z,11.50
2023-03-24T19:13:50.668Z,11.50
2023-03-24T19:16:20.071Z,11.50
2023-03-24T19:18:50.978Z,11.50
2023-03-24T19:21:20.039Z,11.50
2023-03-24T19:23:50.524Z,11.50
2023-03-24T19:26:20.552Z,11.50
2023-03-24T19:28:47.434Z,11.50
2023-03-24T19:31:18.115Z,11.50
2023-03-24T19:33:46.947Z,11.50
2023-03-24T19:36:18.319Z,11.50
2023-03-24T19:38:47.726Z,11.40
2023-03-24T19:41:17.522Z,11.50
2023-03-24T19:43:45.842Z,11.50
2023-03-24T19:46:12.909Z,11.40
2023-03-24T19:48:39.973Z,11.40
2023-03-24T19:51:07.031Z,11.50
2023-03-24T19:53:33.974Z,11.40
2023-03-24T19:56:02.118Z,11.40
2023-03-24T19:58:29.399Z,11.40
2023-03-24T20:00:56.963Z,11.50
2023-03-24T20:03:24.245Z,11.50
2023-03-24T20:05:51.713Z,11.50
2023-03-24T20:08:23.991Z,11.50
2023-03-24T20:10:54.963Z,11.60
2023-03-24T20:13:24.292Z,11.70
2023-03-24T20:16:01.352Z,11.60
2023-03-24T20:18:28.734Z,11.70
2023-03-24T20:20:56.960Z,11.70
2023-03-24T20:23:24.158Z,11.70
2023-03-24T20:25:52.469Z,11.70
2023-03-24T20:28:26.248Z,11.70
2023-03-24T20:31:00.285Z,11.70
2023-03-24T20:33:28.790Z,11.70
2023-03-24T20:35:59.099Z,11.80
2023-03-24T20:38:27.030Z,11.80
2023-03-24T20:40:58.963Z,11.80
2023-03-24T20:43:26.720Z,11.80
2023-03-24T20:45:58.088Z,11.80
2023-03-24T20:48:27.899Z,11.80
2023-03-24T20:50:56.202Z,11.70
2023-03-24T20:53:23.130Z,11.70
2023-03-24T20:56:08.337Z,11.60
2023-03-24T20:58:37.996Z,11.60
2023-03-24T21:01:24.965Z,11.70
2023-03-24T21:04:02.129Z,11.70
2023-03-24T21:06:35.931Z,11.70
2023-03-24T21:09:02.645Z,11.70
2023-03-24T21:11:31.868Z,11.60
2023-03-24T21:13:59.140Z,11.60
2023-03-24T21:16:28.834Z,11.60
2023-03-24T21:18:58.954Z,11.60
2023-03-24T21:21:25.880Z,11.50
2023-03-24T21:23:54.042Z,11.50
2023-03-24T21:26:21.257Z,11.50
2023-03-24T21:28:48.380Z,11.50
2023-03-24T21:31:28.258Z,11.50
2023-03-24T21:33:55.891Z,11.40
2023-03-24T21:36:24.324Z,11.30
2023-03-24T21:38:52.047Z,11.30
2023-03-24T21:41:20.204Z,11.30
2023-03-24T21:43:51.384Z,11.30
2023-03-24T21:46:21.365Z,11.20
2023-03-24T21:48:55.496Z,11.20
2023-03-24T21:51:37.094Z,11.20
2023-03-24T21:54:06.717Z,11.10
2023-03-24T21:56:40.849Z,11.10
2023-03-24T21:59:11.258Z,11.10
2023-03-24T22:01:38.298Z,11.10
2023-03-24T22:04:07.396Z,11.00
2023-03-24T22:06:38.691Z,11.10
2023-03-24T22:09:06.977Z,11.10
2023-03-24T22:11:35.282Z,11.10
2023-03-24T22:14:03.793Z,11.10
2023-03-24T22:16:30.856Z,11.10
2023-03-24T22:18:58.641Z,11.10
2023-03-24T22:21:28.045Z,11.10
2023-03-24T22:23:55.804Z,11.10
2023-03-24T22:26:25.612Z,11.00
2023-03-24T22:28:56.344Z,11.00
2023-03-24T22:31:24.233Z,11.00
2023-03-24T22:33:51.589Z,11.10
2023-03-24T22:36:18.481Z,11.00
2023-03-24T22:38:47.754Z,11.00
2023-03-24T22:41:14.573Z,11.00
2023-03-24T22:43:42.374Z,11.00
2023-03-24T22:46:11.642Z,11.00
2023-03-24T22:48:41.178Z,11.00
2023-03-24T22:51:16.885Z,11.00
2023-03-24T22:53:43.641Z,11.00
2023-03-24T22:56:13.805Z,11.00
2023-03-24T22:58:41.491Z,11.00
2023-03-24T23:01:11.097Z,11.00
2023-03-24T23:03:38.023Z,11.00
2023-03-24T23:06:05.247Z,10.90
2023-03-24T23:08:33.895Z,10.90
2023-03-24T23:11:01.578Z,10.90
2023-03-24T23:13:30.886Z,10.90
2023-03-24T23:15:57.749Z,10.90
2023-03-24T23:18:27.079Z,11.00
2023-03-24T23:21:12.003Z,11.00
2023-03-24T23:23:40.987Z,11.00
2023-03-24T23:26:13.735Z,11.00
2023-03-24T23:28:53.722Z,11.00
2023-03-24T23:31:24.819Z,10.90
2023-03-24T23:33:57.334Z,11.00
2023-03-24T23:36:26.334Z,11.00
2023-03-24T23:38:54.790Z,11.00
2023-03-24T23:41:24.482Z,10.90
2023-03-24T23:43:52.789Z,10.90
2023-03-24T23:46:23.984Z,10.90
2023-03-24T23:48:50.917Z,10.80
2023-03-24T23:51:18.746Z,10.80
2023-03-24T23:53:46.067Z,10.80
2023-03-24T23:56:14.125Z,10.70
2023-03-24T23:58:42.637Z,10.70
